EIN35L EIDW-EGLL
Flight info
| Callsign | EIN35L |
|---|---|
| Flight time | 0h 57m |
| Altitude | 35000 |
| Route | PESIT4E PESIT DCT BAKUR DCT ECCIT DCT GUBJE DCT GISOK DCT TACQI DCT FONZU DCT ELRIP DCT OTMET |
| Aircraft | A339/H-SADE1E2E3GHIJ3J5M1P2RWXY/LB2D1 |
Departure
| Time | 2026-05-03 22:55 |
|---|---|
| Airport | Dublin Airport (EIDW) |
Arrival
| Time | 2026-05-03 23:52 |
|---|---|
| Airport | London Heathrow Airport (EGLL) |
| Time | Latitude | Longitude | Altitude | Speed | Heading |
|---|---|---|---|---|---|
| 2026-05-03 22:31 | 53.42567 | -6.24684 | 217 ft | 0 kts | 72° |
| 2026-05-03 22:43 | 53.42567 | -6.24686 | 189 ft | 1 kts | 72° |
| 2026-05-03 22:43 | 53.42564 | -6.24698 | 217 ft | 1 kts | 72° |
| 2026-05-03 22:43 | 53.42562 | -6.24710 | 221 ft | 1 kts | 72° |
| 2026-05-03 22:44 | 53.42559 | -6.24727 | 218 ft | 2 kts | 72° |
| 2026-05-03 22:44 | 53.42553 | -6.24758 | 218 ft | 3 kts | 72° |
| 2026-05-03 22:44 | 53.42546 | -6.24792 | 220 ft | 3 kts | 46° |
| 2026-05-03 22:44 | 53.42525 | -6.24813 | 222 ft | 0 kts | 323° |
| 2026-05-03 22:45 | 53.42517 | -6.24802 | 219 ft | 2 kts | 330° |
| 2026-05-03 22:45 | 53.42514 | -6.24798 | 219 ft | 0 kts | 333° |
| 2026-05-03 22:48 | 53.42515 | -6.24799 | 219 ft | 2 kts | 333° |
| 2026-05-03 22:48 | 53.42619 | -6.24887 | 222 ft | 23 kts | 334° |
| 2026-05-03 22:49 | 53.42739 | -6.25005 | 218 ft | 0 kts | 327° |
| 2026-05-03 22:49 | 53.42755 | -6.25026 | 222 ft | 6 kts | 319° |
| 2026-05-03 22:49 | 53.42765 | -6.25109 | 223 ft | 8 kts | 257° |
| 2026-05-03 22:49 | 53.42718 | -6.25190 | 225 ft | 12 kts | 225° |
| 2026-05-03 22:50 | 53.42650 | -6.25305 | 222 ft | 16 kts | 225° |
| 2026-05-03 22:50 | 53.42561 | -6.25457 | 219 ft | 20 kts | 225° |
| 2026-05-03 22:50 | 53.42455 | -6.25640 | 222 ft | 23 kts | 226° |
| 2026-05-03 22:50 | 53.42334 | -6.25848 | 221 ft | 26 kts | 226° |
| 2026-05-03 22:51 | 53.42259 | -6.26126 | 217 ft | 28 kts | 270° |
| 2026-05-03 22:51 | 53.42274 | -6.26462 | 220 ft | 30 kts | 275° |
| 2026-05-03 22:51 | 53.42296 | -6.26820 | 217 ft | 31 kts | 276° |
| 2026-05-03 22:51 | 53.42313 | -6.27121 | 222 ft | 29 kts | 275° |
| 2026-05-03 22:52 | 53.42333 | -6.27463 | 217 ft | 30 kts | 275° |
| 2026-05-03 22:52 | 53.42352 | -6.27804 | 224 ft | 29 kts | 275° |
| 2026-05-03 22:52 | 53.42372 | -6.28156 | 219 ft | 31 kts | 275° |
| 2026-05-03 22:52 | 53.42390 | -6.28529 | 217 ft | 33 kts | 275° |
| 2026-05-03 22:53 | 53.42409 | -6.28875 | 224 ft | 22 kts | 275° |
| 2026-05-03 22:53 | 53.42402 | -6.29004 | 220 ft | 0 kts | 250° |
| 2026-05-03 22:53 | 53.42377 | -6.29052 | 216 ft | 12 kts | 223° |
| 2026-05-03 22:53 | 53.42371 | -6.29059 | 216 ft | 0 kts | 219° |
| 2026-05-03 22:54 | 53.42341 | -6.29078 | 224 ft | 11 kts | 195° |
| 2026-05-03 22:54 | 53.42255 | -6.29040 | 218 ft | 14 kts | 140° |
| 2026-05-03 22:54 | 53.42240 | -6.28954 | 221 ft | 2 kts | 94° |
| 2026-05-03 22:55 | 53.42224 | -6.28596 | 222 ft | 85 kts | 95° |
| 2026-05-03 22:55 | 53.42143 | -6.27005 | 272 ft | 179 kts | 93° |
| 2026-05-03 22:55 | 53.42004 | -6.24813 | 1140 ft | 190 kts | 93° |
| 2026-05-03 22:55 | 53.41895 | -6.22647 | 2457 ft | 189 kts | 91° |
| 2026-05-03 22:56 | 53.41788 | -6.20352 | 3361 ft | 207 kts | 92° |
| 2026-05-03 22:56 | 53.41658 | -6.17829 | 4055 ft | 228 kts | 92° |
| 2026-05-03 22:56 | 53.41386 | -6.15093 | 4607 ft | 250 kts | 107° |
| 2026-05-03 22:56 | 53.40388 | -6.12603 | 5316 ft | 267 kts | 134° |
| 2026-05-03 22:57 | 53.38749 | -6.11065 | 6298 ft | 276 kts | 161° |
| 2026-05-03 22:57 | 53.36822 | -6.10527 | 7182 ft | 284 kts | 173° |
| 2026-05-03 22:57 | 53.34849 | -6.10238 | 8174 ft | 285 kts | 173° |
| 2026-05-03 22:57 | 53.32879 | -6.09831 | 9099 ft | 289 kts | 170° |
| 2026-05-03 22:58 | 53.30905 | -6.09239 | 10192 ft | 288 kts | 168° |
| 2026-05-03 22:58 | 53.28880 | -6.08520 | 10716 ft | 308 kts | 166° |
| 2026-05-03 22:58 | 53.26716 | -6.07679 | 11056 ft | 331 kts | 166° |
| 2026-05-03 22:58 | 53.24421 | -6.06761 | 11624 ft | 343 kts | 166° |
| 2026-05-03 22:59 | 53.22083 | -6.05823 | 12384 ft | 349 kts | 165° |
| 2026-05-03 22:59 | 53.19699 | -6.04879 | 13156 ft | 354 kts | 165° |
| 2026-05-03 22:59 | 53.17294 | -6.03931 | 13963 ft | 358 kts | 165° |
| 2026-05-03 22:59 | 53.14842 | -6.02963 | 14629 ft | 363 kts | 165° |
| 2026-05-03 23:00 | 53.12375 | -6.01987 | 15404 ft | 366 kts | 165° |
| 2026-05-03 23:00 | 53.09891 | -6.01007 | 16148 ft | 369 kts | 165° |
| 2026-05-03 23:00 | 53.07380 | -6.00021 | 16916 ft | 371 kts | 165° |
| 2026-05-03 23:00 | 53.04852 | -5.99031 | 17598 ft | 376 kts | 165° |
| 2026-05-03 23:01 | 53.02295 | -5.98033 | 18278 ft | 380 kts | 165° |
| 2026-05-03 23:01 | 52.99700 | -5.97013 | 18922 ft | 383 kts | 165° |
| 2026-05-03 23:01 | 52.97117 | -5.96006 | 19538 ft | 387 kts | 165° |
| 2026-05-03 23:01 | 52.94472 | -5.94978 | 20157 ft | 391 kts | 165° |
| 2026-05-03 23:02 | 52.91810 | -5.93940 | 20846 ft | 393 kts | 165° |
| 2026-05-03 23:02 | 52.89128 | -5.92898 | 21454 ft | 398 kts | 165° |
| 2026-05-03 23:02 | 52.86409 | -5.91838 | 22136 ft | 401 kts | 165° |
| 2026-05-03 23:02 | 52.83683 | -5.90781 | 22821 ft | 404 kts | 165° |
| 2026-05-03 23:03 | 52.80932 | -5.89716 | 23475 ft | 408 kts | 165° |
| 2026-05-03 23:03 | 52.78190 | -5.88653 | 24018 ft | 412 kts | 165° |
| 2026-05-03 23:03 | 52.75393 | -5.87573 | 24594 ft | 415 kts | 165° |
| 2026-05-03 23:03 | 52.72577 | -5.86488 | 25161 ft | 417 kts | 165° |
| 2026-05-03 23:04 | 52.69732 | -5.85391 | 25738 ft | 420 kts | 165° |
| 2026-05-03 23:04 | 52.66878 | -5.84292 | 26308 ft | 423 kts | 165° |
| 2026-05-03 23:04 | 52.63990 | -5.83182 | 26804 ft | 427 kts | 165° |
| 2026-05-03 23:04 | 52.61091 | -5.82074 | 27359 ft | 430 kts | 165° |
| 2026-05-03 23:05 | 52.59157 | -5.81336 | 27778 ft | 430 kts | 165° |
| 2026-05-03 23:05 | 52.56230 | -5.80212 | 28290 ft | 433 kts | 165° |
| 2026-05-03 23:05 | 52.53282 | -5.79082 | 28778 ft | 436 kts | 166° |
| 2026-05-03 23:05 | 52.50318 | -5.77944 | 29252 ft | 439 kts | 166° |
| 2026-05-03 23:06 | 52.47330 | -5.76804 | 29756 ft | 442 kts | 166° |
| 2026-05-03 23:06 | 52.43341 | -5.75289 | 30356 ft | 446 kts | 166° |
| 2026-05-03 23:06 | 52.41296 | -5.74513 | 30655 ft | 448 kts | 166° |
| 2026-05-03 23:06 | 52.38245 | -5.73354 | 31047 ft | 452 kts | 166° |
| 2026-05-03 23:07 | 52.35187 | -5.72193 | 31638 ft | 450 kts | 166° |
| 2026-05-03 23:07 | 52.32115 | -5.71030 | 31968 ft | 455 kts | 166° |
| 2026-05-03 23:07 | 52.29061 | -5.69875 | 32370 ft | 457 kts | 166° |
| 2026-05-03 23:07 | 52.25947 | -5.68700 | 32722 ft | 460 kts | 166° |
| 2026-05-03 23:08 | 52.22820 | -5.67529 | 32997 ft | 463 kts | 167° |
| 2026-05-03 23:08 | 52.19648 | -5.66491 | 33213 ft | 466 kts | 169° |
| 2026-05-03 23:08 | 52.16456 | -5.65448 | 33337 ft | 470 kts | 165° |
| 2026-05-03 23:08 | 52.13352 | -5.63816 | 33654 ft | 468 kts | 158° |
| 2026-05-03 23:09 | 52.10403 | -5.61529 | 33841 ft | 470 kts | 150° |
| 2026-05-03 23:09 | 52.07667 | -5.58629 | 34141 ft | 468 kts | 145° |
| 2026-05-03 23:09 | 52.04994 | -5.55600 | 34331 ft | 469 kts | 147° |
| 2026-05-03 23:09 | 52.02173 | -5.52943 | 34531 ft | 469 kts | 153° |
| 2026-05-03 23:10 | 51.99241 | -5.50635 | 34700 ft | 470 kts | 154° |
| 2026-05-03 23:10 | 51.96314 | -5.48345 | 34876 ft | 471 kts | 154° |
| 2026-05-03 23:10 | 51.93318 | -5.45994 | 34940 ft | 472 kts | 154° |
| 2026-05-03 23:11 | 51.87475 | -5.41400 | 34946 ft | 471 kts | 154° |
| 2026-05-03 23:11 | 51.81583 | -5.36783 | 34942 ft | 471 kts | 154° |
| 2026-05-03 23:12 | 51.75695 | -5.32178 | 34938 ft | 470 kts | 154° |
| 2026-05-03 23:12 | 51.69811 | -5.27582 | 34940 ft | 468 kts | 154° |
| 2026-05-03 23:13 | 51.63947 | -5.23026 | 34923 ft | 467 kts | 155° |
| 2026-05-03 23:13 | 51.58115 | -5.18512 | 34922 ft | 466 kts | 155° |
| 2026-05-03 23:14 | 51.52270 | -5.13869 | 34942 ft | 470 kts | 151° |
| 2026-05-03 23:14 | 51.46921 | -5.07846 | 34940 ft | 470 kts | 140° |
| 2026-05-03 23:15 | 51.42036 | -5.00847 | 34939 ft | 471 kts | 139° |
| 2026-05-03 23:15 | 51.37126 | -4.93884 | 34939 ft | 471 kts | 139° |
| 2026-05-03 23:16 | 51.32236 | -4.87003 | 34942 ft | 471 kts | 139° |
| 2026-05-03 23:16 | 51.27311 | -4.80097 | 34941 ft | 471 kts | 140° |
| 2026-05-03 23:17 | 51.22370 | -4.73188 | 34941 ft | 471 kts | 140° |
| 2026-05-03 23:17 | 51.17447 | -4.66332 | 34942 ft | 470 kts | 140° |
| 2026-05-03 23:18 | 51.12519 | -4.59483 | 34945 ft | 470 kts | 140° |
| 2026-05-03 23:18 | 51.07595 | -4.52633 | 34937 ft | 469 kts | 139° |
| 2026-05-03 23:19 | 51.03205 | -4.44937 | 34938 ft | 472 kts | 128° |
| 2026-05-03 23:19 | 50.99714 | -4.36093 | 34938 ft | 473 kts | 122° |
| 2026-05-03 23:20 | 50.96363 | -4.27088 | 34939 ft | 473 kts | 122° |
| 2026-05-03 23:20 | 50.93003 | -4.18176 | 34936 ft | 473 kts | 122° |
| 2026-05-03 23:21 | 50.89607 | -4.09220 | 34944 ft | 473 kts | 123° |
| 2026-05-03 23:21 | 50.86213 | -4.00292 | 34946 ft | 474 kts | 123° |
| 2026-05-03 23:22 | 50.81536 | -3.86507 | 34944 ft | 476 kts | 112° |
| 2026-05-03 23:22 | 50.79464 | -3.76614 | 34948 ft | 477 kts | 110° |
| 2026-05-03 23:23 | 50.77395 | -3.66650 | 34937 ft | 477 kts | 110° |
| 2026-05-03 23:23 | 50.75293 | -3.56692 | 34940 ft | 478 kts | 110° |
| 2026-05-03 23:24 | 50.73183 | -3.46741 | 34892 ft | 477 kts | 110° |
| 2026-05-03 23:24 | 50.72125 | -3.41782 | 34668 ft | 476 kts | 111° |
| 2026-05-03 23:24 | 50.71081 | -3.36892 | 34439 ft | 476 kts | 111° |
| 2026-05-03 23:25 | 50.70022 | -3.31935 | 34203 ft | 476 kts | 111° |
| 2026-05-03 23:25 | 50.68962 | -3.26985 | 33981 ft | 476 kts | 111° |
| 2026-05-03 23:25 | 50.67902 | -3.22044 | 33700 ft | 476 kts | 111° |
| 2026-05-03 23:25 | 50.66837 | -3.17099 | 33448 ft | 476 kts | 111° |
| 2026-05-03 23:26 | 50.65771 | -3.12161 | 33166 ft | 476 kts | 111° |
| 2026-05-03 23:26 | 50.64703 | -3.07226 | 32898 ft | 476 kts | 111° |
| 2026-05-03 23:26 | 50.63819 | -3.02203 | 32627 ft | 479 kts | 103° |
| 2026-05-03 23:26 | 50.63477 | -2.96945 | 32362 ft | 483 kts | 93° |
| 2026-05-03 23:27 | 50.63702 | -2.91661 | 32107 ft | 486 kts | 84° |
| 2026-05-03 23:27 | 50.64299 | -2.86446 | 31617 ft | 482 kts | 82° |
| 2026-05-03 23:27 | 50.64900 | -2.81279 | 30895 ft | 477 kts | 82° |
| 2026-05-03 23:27 | 50.65486 | -2.76154 | 30107 ft | 473 kts | 82° |
| 2026-05-03 23:28 | 50.66050 | -2.71144 | 29206 ft | 466 kts | 83° |
| 2026-05-03 23:28 | 50.66606 | -2.66148 | 28268 ft | 460 kts | 83° |
| 2026-05-03 23:28 | 50.67151 | -2.61203 | 27616 ft | 450 kts | 83° |
| 2026-05-03 23:28 | 50.67682 | -2.56358 | 27495 ft | 455 kts | 83° |
| 2026-05-03 23:29 | 50.68049 | -2.51381 | 27362 ft | 454 kts | 90° |
| 2026-05-03 23:29 | 50.68048 | -2.46428 | 26710 ft | 449 kts | 97° |
| 2026-05-03 23:29 | 50.67821 | -2.41610 | 26118 ft | 441 kts | 97° |
| 2026-05-03 23:29 | 50.67605 | -2.36818 | 25876 ft | 438 kts | 97° |
| 2026-05-03 23:30 | 50.67395 | -2.32006 | 25707 ft | 440 kts | 97° |
| 2026-05-03 23:30 | 50.67186 | -2.27169 | 25451 ft | 442 kts | 97° |
| 2026-05-03 23:30 | 50.66977 | -2.22359 | 25162 ft | 439 kts | 97° |
| 2026-05-03 23:30 | 50.66768 | -2.17559 | 24866 ft | 437 kts | 97° |
| 2026-05-03 23:31 | 50.66556 | -2.12784 | 24580 ft | 436 kts | 98° |
| 2026-05-03 23:31 | 50.66346 | -2.08027 | 24277 ft | 434 kts | 98° |
| 2026-05-03 23:31 | 50.66137 | -2.03287 | 23987 ft | 432 kts | 97° |
| 2026-05-03 23:31 | 50.66131 | -1.98530 | 23689 ft | 434 kts | 92° |
| 2026-05-03 23:32 | 50.66200 | -1.93786 | 23373 ft | 432 kts | 92° |
| 2026-05-03 23:32 | 50.66263 | -1.89070 | 23072 ft | 430 kts | 92° |
| 2026-05-03 23:32 | 50.66322 | -1.84367 | 22786 ft | 429 kts | 92° |
| 2026-05-03 23:32 | 50.66373 | -1.79657 | 22508 ft | 430 kts | 92° |
| 2026-05-03 23:33 | 50.66423 | -1.75014 | 22219 ft | 427 kts | 92° |
| 2026-05-03 23:33 | 50.66471 | -1.70347 | 21925 ft | 425 kts | 92° |
| 2026-05-03 23:33 | 50.66520 | -1.65709 | 21641 ft | 423 kts | 92° |
| 2026-05-03 23:33 | 50.66564 | -1.61074 | 21355 ft | 421 kts | 92° |
| 2026-05-03 23:34 | 50.66809 | -1.56488 | 21068 ft | 422 kts | 83° |
| 2026-05-03 23:34 | 50.67547 | -1.51995 | 20692 ft | 424 kts | 73° |
| 2026-05-03 23:34 | 50.68743 | -1.47763 | 20211 ft | 420 kts | 65° |
| 2026-05-03 23:34 | 50.70050 | -1.43663 | 19749 ft | 417 kts | 65° |
| 2026-05-03 23:35 | 50.71329 | -1.39576 | 19278 ft | 414 kts | 65° |
| 2026-05-03 23:35 | 50.72589 | -1.35505 | 18848 ft | 411 kts | 65° |
| 2026-05-03 23:35 | 50.73837 | -1.31459 | 18400 ft | 408 kts | 65° |
| 2026-05-03 23:35 | 50.75088 | -1.27469 | 17924 ft | 404 kts | 63° |
| 2026-05-03 23:36 | 50.76687 | -1.23894 | 17487 ft | 404 kts | 49° |
| 2026-05-03 23:36 | 50.78761 | -1.20931 | 17056 ft | 402 kts | 36° |
| 2026-05-03 23:36 | 50.81098 | -1.18539 | 16627 ft | 399 kts | 32° |
| 2026-05-03 23:36 | 50.83427 | -1.16185 | 16182 ft | 396 kts | 33° |
| 2026-05-03 23:37 | 50.85732 | -1.13825 | 15749 ft | 392 kts | 33° |
| 2026-05-03 23:37 | 50.88008 | -1.11477 | 15323 ft | 389 kts | 33° |
| 2026-05-03 23:37 | 50.90271 | -1.09136 | 14905 ft | 386 kts | 33° |
| 2026-05-03 23:37 | 50.92519 | -1.06805 | 14480 ft | 384 kts | 33° |
| 2026-05-03 23:38 | 50.94745 | -1.04493 | 14054 ft | 381 kts | 33° |
| 2026-05-03 23:38 | 50.96956 | -1.02188 | 13629 ft | 379 kts | 33° |
| 2026-05-03 23:38 | 50.99149 | -0.99886 | 13208 ft | 375 kts | 35° |
| 2026-05-03 23:38 | 51.01161 | -0.97265 | 13080 ft | 375 kts | 44° |
| 2026-05-03 23:39 | 51.02930 | -0.94232 | 12959 ft | 374 kts | 50° |
| 2026-05-03 23:39 | 51.04630 | -0.91172 | 12949 ft | 374 kts | 49° |
| 2026-05-03 23:39 | 51.06369 | -0.88069 | 12927 ft | 376 kts | 49° |
| 2026-05-03 23:39 | 51.08116 | -0.84955 | 12905 ft | 379 kts | 49° |
| 2026-05-03 23:40 | 51.09882 | -0.81809 | 12879 ft | 382 kts | 49° |
| 2026-05-03 23:40 | 51.11655 | -0.78645 | 12839 ft | 384 kts | 49° |
| 2026-05-03 23:40 | 51.13434 | -0.75466 | 12813 ft | 385 kts | 49° |
| 2026-05-03 23:40 | 51.15219 | -0.72270 | 12780 ft | 387 kts | 49° |
| 2026-05-03 23:41 | 51.17010 | -0.69056 | 12749 ft | 388 kts | 49° |
| 2026-05-03 23:41 | 51.18805 | -0.65836 | 12720 ft | 389 kts | 49° |
| 2026-05-03 23:41 | 51.20604 | -0.62602 | 12682 ft | 390 kts | 49° |
| 2026-05-03 23:41 | 51.22397 | -0.59376 | 12610 ft | 379 kts | 49° |
| 2026-05-03 23:42 | 51.24069 | -0.56367 | 12247 ft | 357 kts | 49° |
| 2026-05-03 23:42 | 51.25683 | -0.53454 | 11596 ft | 345 kts | 49° |
| 2026-05-03 23:42 | 51.27253 | -0.50621 | 10900 ft | 336 kts | 49° |
| 2026-05-03 23:42 | 51.28784 | -0.47851 | 10233 ft | 328 kts | 49° |
| 2026-05-03 23:43 | 51.30152 | -0.45009 | 9506 ft | 317 kts | 59° |
| 2026-05-03 23:43 | 51.31024 | -0.41889 | 8788 ft | 299 kts | 74° |
| 2026-05-03 23:43 | 51.31521 | -0.38768 | 8077 ft | 283 kts | 77° |
| 2026-05-03 23:43 | 51.31995 | -0.35798 | 7477 ft | 267 kts | 77° |
| 2026-05-03 23:44 | 51.32451 | -0.33041 | 7363 ft | 255 kts | 77° |
| 2026-05-03 23:44 | 51.32905 | -0.30293 | 7241 ft | 254 kts | 76° |
| 2026-05-03 23:44 | 51.33361 | -0.27576 | 7144 ft | 252 kts | 77° |
| 2026-05-03 23:44 | 51.33807 | -0.24880 | 7048 ft | 250 kts | 77° |
| 2026-05-03 23:45 | 51.34247 | -0.22204 | 6942 ft | 249 kts | 77° |
| 2026-05-03 23:45 | 51.34685 | -0.19540 | 6811 ft | 246 kts | 77° |
| 2026-05-03 23:45 | 51.35116 | -0.16969 | 6720 ft | 232 kts | 76° |
| 2026-05-03 23:45 | 51.35526 | -0.14529 | 6457 ft | 225 kts | 77° |
| 2026-05-03 23:46 | 51.35992 | -0.12155 | 6010 ft | 226 kts | 63° |
| 2026-05-03 23:46 | 51.37110 | -0.10451 | 5618 ft | 225 kts | 24° |
| 2026-05-03 23:46 | 51.38620 | -0.10119 | 5289 ft | 218 kts | 352° |
| 2026-05-03 23:46 | 51.40108 | -0.10597 | 4835 ft | 219 kts | 345° |
| 2026-05-03 23:47 | 51.41587 | -0.11115 | 4380 ft | 218 kts | 350° |
| 2026-05-03 23:47 | 51.43090 | -0.11365 | 3992 ft | 216 kts | 354° |
| 2026-05-03 23:47 | 51.44557 | -0.11524 | 3642 ft | 212 kts | 356° |
| 2026-05-03 23:47 | 51.46029 | -0.11664 | 3561 ft | 217 kts | 353° |
| 2026-05-03 23:48 | 51.47393 | -0.12542 | 3450 ft | 209 kts | 320° |
| 2026-05-03 23:48 | 51.48168 | -0.14312 | 3438 ft | 186 kts | 285° |
| 2026-05-03 23:48 | 51.48193 | -0.16389 | 3445 ft | 190 kts | 261° |
| 2026-05-03 23:48 | 51.48007 | -0.18433 | 3441 ft | 185 kts | 259° |
| 2026-05-03 23:49 | 51.47866 | -0.20495 | 3434 ft | 185 kts | 263° |
| 2026-05-03 23:49 | 51.47814 | -0.22527 | 3321 ft | 179 kts | 268° |
| 2026-05-03 23:49 | 51.47832 | -0.24531 | 2969 ft | 179 kts | 270° |
| 2026-05-03 23:49 | 51.47817 | -0.26489 | 2566 ft | 173 kts | 267° |
| 2026-05-03 23:50 | 51.47818 | -0.28447 | 2172 ft | 173 kts | 270° |
| 2026-05-03 23:50 | 51.47806 | -0.29721 | 1916 ft | 173 kts | 268° |
| 2026-05-03 23:50 | 51.47795 | -0.32240 | 1492 ft | 172 kts | 269° |
| 2026-05-03 23:50 | 51.47791 | -0.34118 | 1256 ft | 161 kts | 269° |
| 2026-05-03 23:51 | 51.47792 | -0.35901 | 1022 ft | 158 kts | 270° |
| 2026-05-03 23:51 | 51.47782 | -0.37640 | 811 ft | 151 kts | 268° |
| 2026-05-03 23:51 | 51.47777 | -0.39325 | 619 ft | 153 kts | 268° |
| 2026-05-03 23:51 | 51.47770 | -0.40981 | 409 ft | 149 kts | 268° |
| 2026-05-03 23:52 | 51.47772 | -0.42658 | 222 ft | 146 kts | 269° |
| 2026-05-03 23:52 | 51.47757 | -0.44317 | 98 ft | 141 kts | 269° |
| 2026-05-03 23:52 | 51.47750 | -0.45398 | 94 ft | 49 kts | 270° |
| 2026-05-03 23:52 | 51.47725 | -0.45830 | 96 ft | 39 kts | 242° |
| 2026-05-03 23:53 | 51.47638 | -0.45985 | 97 ft | 15 kts | 224° |
| 2026-05-03 23:53 | 51.47553 | -0.46069 | 100 ft | 12 kts | 182° |
| 2026-05-03 23:53 | 51.47517 | -0.45985 | 99 ft | 13 kts | 96° |
| 2026-05-03 23:53 | 51.47513 | -0.45870 | 96 ft | 18 kts | 92° |
| 2026-05-03 23:54 | 51.47509 | -0.45655 | 100 ft | 20 kts | 91° |
| 2026-05-03 23:54 | 51.47506 | -0.45410 | 98 ft | 24 kts | 91° |
| 2026-05-03 23:54 | 51.47506 | -0.45125 | 100 ft | 26 kts | 89° |
| 2026-05-03 23:54 | 51.47508 | -0.44813 | 98 ft | 30 kts | 89° |
| 2026-05-03 23:55 | 51.47509 | -0.44660 | 100 ft | 1 kts | 91° |
| 2026-05-03 23:55 | 51.47508 | -0.44631 | 100 ft | 4 kts | 94° |
| 2026-05-03 23:55 | 51.47485 | -0.44575 | 100 ft | 8 kts | 134° |
| 2026-05-03 23:55 | 51.47412 | -0.44557 | 94 ft | 14 kts | 176° |
| 2026-05-03 23:56 | 51.47296 | -0.44556 | 93 ft | 19 kts | 180° |
| 2026-05-03 23:56 | 51.47155 | -0.44556 | 94 ft | 22 kts | 180° |
| 2026-05-03 23:56 | 51.47012 | -0.44564 | 96 ft | 19 kts | 184° |
| 2026-05-03 23:56 | 51.46877 | -0.44558 | 96 ft | 20 kts | 178° |
| 2026-05-03 23:57 | 51.46766 | -0.44565 | 98 ft | 11 kts | 200° |
| 2026-05-03 23:57 | 51.46754 | -0.44637 | 99 ft | 6 kts | 275° |
| 2026-05-03 23:57 | 51.46755 | -0.44719 | 101 ft | 8 kts | 269° |
| 2026-05-03 23:57 | 51.46754 | -0.44825 | 99 ft | 11 kts | 269° |
| 2026-05-03 23:58 | 51.46759 | -0.44939 | 99 ft | 7 kts | 289° |
| 2026-05-03 23:58 | 51.46806 | -0.44983 | 96 ft | 7 kts | 3° |
| 2026-05-03 23:58 | 51.46827 | -0.44980 | 98 ft | 0 kts | 2° |